Terminal Aerodrome Forecast
Issued by NWS

Home | Current Version | Previous Version | Text Only | Print | Product List | Glossary On
Versions: 1 2 3 4 5 6 7 8 9 10 11 12 13 14 15 16 17 18 19
000
FTUS43 KGRR 250500
TAFLAN
TAF
KLAN 250540Z 2506/2606 20003KT 5SM BR SCT040
     FM250900 23005KT 4SM BR BKN007
      TEMPO 2510/2512 SCT007
     FM251400 28016G24KT P6SM SCT040
     FM260200 28007KT P6SM SKC=

USA.gov is the U.S. government's official web portal to all federal, state and local government web resources and services.